地図

経路データ

SID SEASON NUMBER BASIN SUBBASIN NAME ISO_TIME NATURE LAT LON WMO_WIND WMO_PRES WMO_AGENCY TRACK_TYPE DIST2LAND LANDFALL IFLAG USA_AGENCY USA_ATCF_ID USA_LAT USA_LON USA_RECORD USA_STATUS USA_WIND USA_PRES USA_SSHS USA_R34_NE USA_R34_SE USA_R34_SW USA_R34_NW USA_R50_NE USA_R50_SE USA_R50_SW USA_R50_NW USA_R64_NE USA_R64_SE USA_R64_SW USA_R64_NW USA_POCI USA_ROCI USA_RMW USA_EYE TOKYO_LAT TOKYO_LON TOKYO_GRADE TOKYO_WIND TOKYO_PRES TOKYO_R50_DIR TOKYO_R50_LONG TOKYO_R50_SHORT TOKYO_R30_DIR TOKYO_R30_LONG TOKYO_R30_SHORT TOKYO_LAND CMA_LAT CMA_LON CMA_CAT CMA_WIND CMA_PRES HKO_LAT HKO_LON HKO_CAT HKO_WIND HKO_PRES NEWDELHI_LAT NEWDELHI_LON NEWDELHI_GRADE NEWDELHI_WIND NEWDELHI_PRES NEWDELHI_CI NEWDELHI_DP NEWDELHI_POCI REUNION_LAT REUNION_LON REUNION_TYPE REUNION_WIND REUNION_PRES REUNION_TNUM REUNION_CI REUNION_RMW REUNION_R34_NE REUNION_R34_SE REUNION_R34_SW REUNION_R34_NW REUNION_R50_NE REUNION_R50_SE REUNION_R50_SW REUNION_R50_NW REUNION_R64_NE REUNION_R64_SE REUNION_R64_SW REUNION_R64_NW BOM_LAT BOM_LON BOM_TYPE BOM_WIND BOM_PRES BOM_TNUM BOM_CI BOM_RMW BOM_R34_NE BOM_R34_SE BOM_R34_SW BOM_R34_NW BOM_R50_NE BOM_R50_SE BOM_R50_SW BOM_R50_NW BOM_R64_NE BOM_R64_SE BOM_R64_SW BOM_R64_NW BOM_ROCI BOM_POCI BOM_EYE BOM_POS_METHOD BOM_PRES_METHOD NADI_LAT NADI_LON NADI_CAT NADI_WIND NADI_PRES WELLINGTON_LAT WELLINGTON_LON WELLINGTON_WIND WELLINGTON_PRES DS824_LAT DS824_LON DS824_STAGE DS824_WIND DS824_PRES TD9636_LAT TD9636_LON TD9636_STAGE TD9636_WIND TD9636_PRES TD9635_LAT TD9635_LON TD9635_WIND TD9635_PRES TD9635_ROCI NEUMANN_LAT NEUMANN_LON NEUMANN_CLASS NEUMANN_WIND NEUMANN_PRES MLC_LAT MLC_LON MLC_CLASS MLC_WIND MLC_PRES USA_GUST BOM_GUST BOM_GUST_PER REUNION_GUST REUNION_GUST_PER USA_SEAHGT USA_SEARAD_NE USA_SEARAD_SE USA_SEARAD_SW USA_SEARAD_NW STORM_SPEED STORM_DIR
1887139N12116 1887 12 WP MM NOT_NAMED 1887-05-18 16:00:00 NR 12.3000 116.300 main 359 359 __________O___ -1 12.3000 116.300 4 10 292
1887139N12116 1887 12 WP MM NOT_NAMED 1887-05-18 18:00:00 NR 12.4259 115.975 main 393 404 __________P___ -1 12.4259 115.975 4 10 291
1887139N12116 1887 12 WP MM NOT_NAMED 1887-05-18 21:00:00 NR 12.6109 115.491 main 452 452 __________P___ -1 12.6109 115.491 4 10 291
1887139N12116 1887 12 WP MM NOT_NAMED 1887-05-19 00:00:00 NR 12.7870 115.014 main 506 506 __________P___ -1 12.7870 115.014 4 10 290
1887139N12116 1887 12 WP MM NOT_NAMED 1887-05-19 03:00:00 NR 12.9496 114.551 main 542 531 __________P___ -1 12.9496 114.551 4 10 290
1887139N12116 1887 12 WP MM NOT_NAMED 1887-05-19 04:00:00 NR 13.0000 114.400 main 531 499 __________O___ -1 13.0000 114.400 4 9 289
1887139N12116 1887 12 WP MM NOT_NAMED 1887-05-19 06:00:00 NR 13.0950 114.105 main 499 456 __________P___ -1 13.0950 114.105 4 9 288
1887139N12116 1887 12 WP MM NOT_NAMED 1887-05-19 09:00:00 NR 13.2311 113.675 main 456 414 __________P___ -1 13.2311 113.675 4 9 289
1887139N12116 1887 12 WP MM NOT_NAMED 1887-05-19 12:00:00 NR 13.3735 113.255 main 415 363 __________P___ -1 13.3735 113.255 4 9 291
1887139N12116 1887 12 WP MM NOT_NAMED 1887-05-19 15:00:00 NR 13.5377 112.839 main 363 355 __________P___ -1 13.5377 112.839 4 9 293
1887139N12116 1887 12 WP MM NOT_NAMED 1887-05-19 16:00:00 NR 13.6000 112.700 main 355 326 __________O___ -1 13.6000 112.700 4 9 297
1887139N12116 1887 12 WP MM NOT_NAMED 1887-05-19 18:00:00 NR 13.7490 112.406 main 326 291 __________P___ -1 13.7490 112.406 4 10 299
1887139N12116 1887 12 WP MM NOT_NAMED 1887-05-19 21:00:00 NR 13.9980 111.966 main 291 241 __________P___ -1 13.9980 111.966 4 10 301
1887139N12116 1887 12 WP MM NOT_NAMED 1887-05-20 00:00:00 NR 14.2607 111.535 main 241 205 __________P___ -1 14.2607 111.535 4 10 303
1887139N12116 1887 12 WP MM NOT_NAMED 1887-05-20 03:00:00 NR 14.5185 111.128 main 205 199 __________P___ -1 14.5185 111.128 4 9 303
1887139N12116 1887 12 WP MM NOT_NAMED 1887-05-20 04:00:00 NR 14.6000 111.000 main 199 182 __________O___ -1 14.6000 111.000 4 8 303
1887139N12116 1887 12 WP MM NOT_NAMED 1887-05-20 06:00:00 NR 14.7471 110.760 main 182 141 __________P___ -1 14.7471 110.760 4 8 303
1887139N12116 1887 12 WP MM NOT_NAMED 1887-05-20 09:00:00 NR 14.9554 110.426 main 143 116 __________P___ -1 14.9554 110.426 4 7 303
1887139N12116 1887 12 WP MM NOT_NAMED 1887-05-20 12:00:00 NR 15.1517 110.111 main 121 96 __________P___ -1 15.1517 110.111 4 7 303
1887139N12116 1887 12 WP MM NOT_NAMED 1887-05-20 15:00:00 NR 15.3390 109.803 main 96 88 __________P___ -1 15.3390 109.803 4 7 302
1887139N12116 1887 12 WP MM NOT_NAMED 1887-05-20 16:00:00 NR 15.4000 109.700 main 88 72 __________O___ -1 15.4000 109.700 4 7 301
1887139N12116 1887 12 WP MM NOT_NAMED 1887-05-20 18:00:00 NR 15.5203 109.490 main 72 61 __________P___ -1 15.5203 109.490 4 7 300
1887139N12116 1887 12 WP MM NOT_NAMED 1887-05-20 21:00:00 NR 15.6973 109.169 main 61 44 __________P___ -1 15.6973 109.169 4 7 299
1887139N12116 1887 12 WP MM NOT_NAMED 1887-05-21 00:00:00 NR 15.8712 108.842 main 44 21 __________P___ -1 15.8712 108.842 4 7 299
1887139N12116 1887 12 WP MM NOT_NAMED 1887-05-21 03:00:00 NR 16.0430 108.511 main 21 15 __________P___ -1 16.0430 108.511 4 7 298
1887139N12116 1887 12 WP MM NOT_NAMED 1887-05-21 04:00:00 NR 16.1000 108.400 main 15 __________O___ -1 16.1000 108.400 7 7 299

デジタル台風データ・検索

IBTrACS Databaseについて

本データベースは、米国NOAAが公開する1842年以降の世界の熱帯低気圧のベストトラックデータアーカイブInternational Best Track Archive for Climate Stewardship (IBTrACS)を、ウェブで閲覧しやすい形式に変換したものです。

最終更新日:2021-12-03